createdAt,value
2018-05-25T00:00:42.641Z,16.80
2018-05-25T00:03:11.040Z,16.80
2018-05-25T00:05:38.630Z,16.80
2018-05-25T00:08:06.281Z,16.80
2018-05-25T00:10:33.886Z,16.80
2018-05-25T00:13:01.525Z,16.80
2018-05-25T00:15:29.107Z,16.70
2018-05-25T00:17:56.728Z,16.60
2018-05-25T00:20:24.316Z,16.60
2018-05-25T00:22:51.940Z,16.50
2018-05-25T00:25:19.524Z,16.50
2018-05-25T00:27:47.177Z,16.50
2018-05-25T00:30:14.756Z,16.50
2018-05-25T00:32:42.384Z,16.50
2018-05-25T00:35:09.969Z,16.40
2018-05-25T00:37:37.592Z,16.40
2018-05-25T00:40:05.183Z,16.30
2018-05-25T00:42:32.808Z,16.30
2018-05-25T00:45:01.207Z,16.20
2018-05-25T00:47:28.796Z,16.20
2018-05-25T00:49:56.427Z,16.00
2018-05-25T00:52:24.058Z,16.00
2018-05-25T00:55:04.365Z,16.00
2018-05-25T00:57:31.947Z,16.00
2018-05-25T00:59:59.613Z,16.00
2018-05-25T01:02:27.257Z,16.00
2018-05-25T01:04:54.922Z,15.90
2018-05-25T01:07:22.504Z,15.90
2018-05-25T01:09:50.088Z,15.90
2018-05-25T01:12:18.494Z,16.00
2018-05-25T01:14:46.076Z,16.00
2018-05-25T01:17:13.697Z,16.10
2018-05-25T01:19:41.322Z,16.10
2018-05-25T01:22:08.920Z,16.10
2018-05-25T01:24:36.551Z,16.20
2018-05-25T01:27:04.178Z,16.10
2018-05-25T01:29:31.765Z,16.10
2018-05-25T01:31:59.395Z,16.10
2018-05-25T01:34:26.978Z,16.10
2018-05-25T01:36:54.604Z,16.10
2018-05-25T01:39:22.228Z,16.10
2018-05-25T01:41:50.576Z,16.00
2018-05-25T01:44:18.199Z,16.00
2018-05-25T01:46:45.848Z,16.00
2018-05-25T01:49:13.435Z,16.00
2018-05-25T01:51:41.057Z,15.90
2018-05-25T01:54:09.410Z,15.90
2018-05-25T01:56:37.034Z,15.90
2018-05-25T01:59:04.629Z,15.90
2018-05-25T02:01:32.267Z,15.90
2018-05-25T02:03:59.847Z,15.90
2018-05-25T02:06:27.500Z,15.80
2018-05-25T02:08:55.126Z,15.80
2018-05-25T02:11:22.712Z,15.70
2018-05-25T02:13:50.332Z,15.70
2018-05-25T02:16:17.993Z,15.70
2018-05-25T02:18:45.613Z,15.70
2018-05-25T02:21:13.272Z,15.60
2018-05-25T02:23:40.901Z,15.60
2018-05-25T02:26:08.501Z,15.70
2018-05-25T02:28:36.092Z,15.70
2018-05-25T02:31:04.504Z,15.70
2018-05-25T02:33:32.102Z,15.70
2018-05-25T02:35:59.689Z,15.70
2018-05-25T02:38:28.092Z,15.70
2018-05-25T02:40:55.678Z,15.70
2018-05-25T02:43:23.269Z,15.70
2018-05-25T02:48:44.229Z,15.50
2018-05-25T02:51:11.857Z,15.40
2018-05-25T02:53:40.215Z,15.30
2018-05-25T02:56:07.849Z,15.30
2018-05-25T02:58:35.494Z,15.30
2018-05-25T03:01:03.192Z,15.30
2018-05-25T03:03:30.844Z,15.30
2018-05-25T03:05:58.437Z,15.20
2018-05-25T03:08:26.082Z,15.20
2018-05-25T03:10:53.677Z,15.20
2018-05-25T03:13:22.076Z,15.20
2018-05-25T03:15:49.656Z,15.10
2018-05-25T03:18:17.288Z,15.10
2018-05-25T03:20:44.903Z,15.10
2018-05-25T03:23:12.528Z,15.10
2018-05-25T03:25:40.114Z,15.10
2018-05-25T03:28:07.740Z,15.10
2018-05-25T03:30:35.380Z,15.10
2018-05-25T03:33:03.745Z,15.00
2018-05-25T03:35:31.333Z,15.10
2018-05-25T03:37:58.961Z,15.10
2018-05-25T03:40:26.552Z,15.10
2018-05-25T03:42:54.176Z,15.10
2018-05-25T03:45:21.761Z,15.10
2018-05-25T03:47:50.153Z,15.10
2018-05-25T03:50:17.744Z,15.10
2018-05-25T03:52:45.372Z,15.10
2018-05-25T03:55:12.960Z,15.10
2018-05-25T03:57:40.588Z,15.10
2018-05-25T04:00:19.961Z,15.10
2018-05-25T04:02:47.593Z,15.10
2018-05-25T04:05:15.216Z,15.00
2018-05-25T04:07:42.817Z,15.00
2018-05-25T04:10:10.448Z,15.00
2018-05-25T04:12:38.034Z,15.00
2018-05-25T04:15:05.693Z,15.00
2018-05-25T04:17:33.386Z,15.00
2018-05-25T04:20:01.022Z,15.00
2018-05-25T04:22:28.652Z,15.00
2018-05-25T04:24:56.257Z,15.00
2018-05-25T04:27:23.917Z,14.90
2018-05-25T04:29:51.500Z,14.90
2018-05-25T04:32:19.091Z,15.00
2018-05-25T04:34:46.732Z,15.00
2018-05-25T04:37:14.352Z,15.10
2018-05-25T04:39:42.001Z,15.10
2018-05-25T04:42:09.640Z,15.20
2018-05-25T04:44:37.229Z,15.60
2018-05-25T04:47:04.875Z,16.20
2018-05-25T04:49:33.231Z,16.90
2018-05-25T04:52:00.865Z,16.90
2018-05-25T04:54:28.473Z,17.20
2018-05-25T04:56:56.869Z,17.60
2018-05-25T04:59:24.504Z,17.60
2018-05-25T05:01:52.881Z,17.90
2018-05-25T05:04:21.377Z,17.80
2018-05-25T05:06:49.732Z,18.00
2018-05-25T05:09:17.414Z,18.00
2018-05-25T05:11:45.401Z,18.10
2018-05-25T05:14:13.033Z,18.10
2018-05-25T05:16:41.441Z,18.00
2018-05-25T05:19:09.033Z,18.00
2018-05-25T05:21:36.660Z,17.70
2018-05-25T05:24:04.302Z,17.40
2018-05-25T05:26:32.680Z,17.00
2018-05-25T05:29:01.118Z,16.90
2018-05-25T05:31:28.708Z,16.80
2018-05-25T05:33:56.359Z,16.80
2018-05-25T05:36:24.013Z,16.60
2018-05-25T05:38:51.608Z,16.50
2018-05-25T05:41:20.005Z,16.50
2018-05-25T05:43:47.637Z,16.40
2018-05-25T05:46:15.224Z,16.50
2018-05-25T05:48:42.856Z,16.50
2018-05-25T05:51:10.454Z,16.50
2018-05-25T05:53:38.057Z,16.50
2018-05-25T05:56:05.701Z,16.50
2018-05-25T05:58:33.352Z,16.50
2018-05-25T06:01:00.949Z,16.50
2018-05-25T06:03:28.598Z,16.60
2018-05-25T06:05:56.229Z,16.70
2018-05-25T06:08:23.859Z,16.70
2018-05-25T06:10:52.437Z,16.80
2018-05-25T06:13:20.836Z,16.80
2018-05-25T06:15:48.512Z,16.80
2018-05-25T06:18:16.212Z,16.90
2018-05-25T06:20:43.860Z,17.00
2018-05-25T06:23:11.532Z,17.10
2018-05-25T06:25:39.153Z,17.20
2018-05-25T06:28:06.797Z,17.30
2018-05-25T06:30:34.433Z,17.40
2018-05-25T06:33:02.068Z,17.50
2018-05-25T06:35:29.705Z,17.50
2018-05-25T06:37:57.302Z,17.60
2018-05-25T06:40:24.944Z,17.60
2018-05-25T06:42:52.576Z,17.60
2018-05-25T06:45:20.205Z,17.60
2018-05-25T06:47:47.801Z,17.70
2018-05-25T06:50:15.513Z,17.80
2018-05-25T06:52:43.147Z,17.80
2018-05-25T06:55:10.736Z,17.90
2018-05-25T06:57:38.369Z,17.90
2018-05-25T07:00:06.013Z,18.00
2018-05-25T07:02:33.664Z,18.00
2018-05-25T07:05:01.294Z,18.10
2018-05-25T07:07:29.713Z,18.20
2018-05-25T07:09:57.320Z,18.20
2018-05-25T07:12:24.957Z,18.30
2018-05-25T07:14:52.593Z,18.30
2018-05-25T07:17:20.180Z,18.40
2018-05-25T07:19:47.876Z,18.40
2018-05-25T07:22:15.525Z,18.50
2018-05-25T07:24:43.125Z,18.60
2018-05-25T07:27:10.740Z,18.70
2018-05-25T07:29:38.325Z,18.80
2018-05-25T07:32:06.729Z,18.90
2018-05-25T07:34:34.352Z,18.90
2018-05-25T07:37:01.980Z,19.00
2018-05-25T07:39:29.568Z,19.10
2018-05-25T07:41:57.196Z,19.20
2018-05-25T07:44:24.792Z,19.30
2018-05-25T07:46:52.424Z,19.50
2018-05-25T07:49:20.061Z,19.70
2018-05-25T07:51:47.713Z,19.90
2018-05-25T07:54:15.352Z,20.00
2018-05-25T07:56:43.712Z,20.20
2018-05-25T07:59:11.352Z,20.20
2018-05-25T08:01:39.060Z,20.30
2018-05-25T08:04:07.428Z,20.50
2018-05-25T08:06:35.060Z,20.50
2018-05-25T08:09:02.681Z,20.70
2018-05-25T08:11:30.328Z,20.90
2018-05-25T08:13:58.689Z,21.10
2018-05-25T08:16:26.323Z,21.10
2018-05-25T08:18:53.913Z,21.20
2018-05-25T08:21:22.321Z,21.20
2018-05-25T08:23:49.926Z,21.20
2018-05-25T08:26:17.529Z,21.30
2018-05-25T08:28:45.937Z,21.40
2018-05-25T08:31:13.581Z,21.40
2018-05-25T08:33:41.214Z,21.40
2018-05-25T08:36:09.585Z,21.40
2018-05-25T08:38:37.221Z,21.40
2018-05-25T08:41:04.860Z,21.50
2018-05-25T08:43:32.489Z,21.50
2018-05-25T08:46:00.890Z,21.60
2018-05-25T08:48:28.520Z,21.60
2018-05-25T08:50:56.921Z,21.70
2018-05-25T08:53:24.554Z,21.70
2018-05-25T08:55:52.185Z,21.90
2018-05-25T08:58:19.804Z,22.00
2018-05-25T09:00:47.432Z,22.10
2018-05-25T09:03:15.029Z,22.20
2018-05-25T09:05:42.665Z,22.30
2018-05-25T09:08:11.085Z,22.40
2018-05-25T09:10:38.725Z,22.40
2018-05-25T09:13:06.361Z,22.60
2018-05-25T09:15:33.959Z,22.70
2018-05-25T09:18:01.605Z,22.70
2018-05-25T09:20:29.241Z,22.70
2018-05-25T09:22:56.830Z,22.60
2018-05-25T09:25:24.461Z,22.70
2018-05-25T09:27:52.089Z,22.70
2018-05-25T09:30:19.680Z,22.80
2018-05-25T09:32:47.328Z,22.80
2018-05-25T09:35:14.961Z,22.80
2018-05-25T09:37:42.552Z,22.80
2018-05-25T09:40:10.192Z,22.80
2018-05-25T09:42:37.829Z,22.80
2018-05-25T09:45:05.434Z,22.80
2018-05-25T09:47:33.076Z,22.70
2018-05-25T09:50:00.672Z,22.60
2018-05-25T09:52:28.307Z,22.50
2018-05-25T09:54:55.941Z,22.50
2018-05-25T09:57:23.539Z,22.40
2018-05-25T09:59:51.177Z,22.30
2018-05-25T10:02:18.773Z,22.30
2018-05-25T10:04:46.411Z,22.30
2018-05-25T10:07:14.036Z,22.30
2018-05-25T10:09:41.641Z,22.30
2018-05-25T10:12:09.291Z,22.40
2018-05-25T10:14:36.889Z,22.50
2018-05-25T10:17:05.302Z,22.70
2018-05-25T10:19:32.937Z,22.70
2018-05-25T10:22:01.302Z,22.80
2018-05-25T10:24:28.994Z,22.80
2018-05-25T10:26:56.597Z,23.00
2018-05-25T10:29:24.233Z,23.20
2018-05-25T10:31:51.839Z,23.50
2018-05-25T10:34:19.468Z,23.80
2018-05-25T10:36:47.067Z,24.00
2018-05-25T10:39:15.490Z,24.20
2018-05-25T10:41:43.100Z,24.20
2018-05-25T10:44:10.688Z,24.20
2018-05-25T10:46:39.089Z,24.30
2018-05-25T10:49:06.695Z,24.20
2018-05-25T10:51:34.325Z,24.20
2018-05-25T10:54:01.913Z,24.30
2018-05-25T10:56:29.601Z,24.50
2018-05-25T10:58:57.967Z,24.30
2018-05-25T11:01:26.408Z,24.10
2018-05-25T11:03:54.001Z,24.00
2018-05-25T11:06:21.644Z,23.80
2018-05-25T11:08:49.236Z,23.80
2018-05-25T11:11:17.600Z,23.80
2018-05-25T11:13:45.233Z,23.70
2018-05-25T11:16:12.825Z,23.90
2018-05-25T11:18:40.469Z,23.80
2018-05-25T11:21:08.058Z,24.10
2018-05-25T11:23:36.420Z,24.20
2018-05-25T11:26:04.089Z,24.20
2018-05-25T11:28:31.687Z,24.00
2018-05-25T11:30:59.324Z,23.70
2018-05-25T11:33:27.728Z,23.40
2018-05-25T11:35:55.323Z,23.40
2018-05-25T11:38:22.961Z,23.30
2018-05-25T11:40:50.553Z,23.00
2018-05-25T11:43:18.177Z,22.50
2018-05-25T11:45:45.812Z,22.30
2018-05-25T11:48:14.241Z,22.00
2018-05-25T11:50:41.881Z,22.00
2018-05-25T11:53:09.517Z,22.10
2018-05-25T11:55:37.869Z,22.30
2018-05-25T11:58:05.500Z,22.20
2018-05-25T12:00:33.147Z,22.10
2018-05-25T12:03:00.776Z,22.10
2018-05-25T12:05:29.128Z,21.70
2018-05-25T12:07:56.786Z,21.70
2018-05-25T12:10:24.424Z,21.50
2018-05-25T12:12:52.021Z,21.40
2018-05-25T12:15:19.617Z,21.20
2018-05-25T12:17:47.294Z,21.10
2018-05-25T12:20:14.963Z,21.00
2018-05-25T12:22:44.064Z,20.90
2018-05-25T12:25:11.692Z,20.90
2018-05-25T12:27:39.281Z,20.90
2018-05-25T12:30:06.928Z,20.80
2018-05-25T12:32:34.556Z,20.70
2018-05-25T12:35:02.972Z,20.60
2018-05-25T12:37:30.612Z,20.60
2018-05-25T12:39:58.237Z,20.60
2018-05-25T12:42:25.821Z,20.60
2018-05-25T12:45:06.186Z,20.60
2018-05-25T12:47:34.544Z,20.60
2018-05-25T12:50:02.170Z,20.50
2018-05-25T12:52:29.753Z,20.40
2018-05-25T12:54:57.383Z,20.20
2018-05-25T12:57:25.017Z,20.00
2018-05-25T12:59:52.648Z,20.00
2018-05-25T13:02:20.279Z,20.00
2018-05-25T13:04:47.873Z,20.00
2018-05-25T13:07:15.500Z,20.00
2018-05-25T13:09:43.128Z,19.90
2018-05-25T13:12:10.756Z,19.90
2018-05-25T13:14:39.112Z,19.90
2018-05-25T13:17:07.540Z,19.90
2018-05-25T13:19:35.181Z,19.80
2018-05-25T13:22:03.535Z,19.60
2018-05-25T13:24:31.176Z,19.60
2018-05-25T13:26:59.515Z,19.60
2018-05-25T13:29:27.108Z,19.50
2018-05-25T13:31:54.748Z,19.50
2018-05-25T13:34:22.345Z,19.60
2018-05-25T13:36:50.015Z,19.60
2018-05-25T13:39:17.613Z,19.60
2018-05-25T13:41:45.973Z,19.60
2018-05-25T13:44:14.381Z,19.60
2018-05-25T13:46:42.118Z,19.60
2018-05-25T13:49:10.477Z,19.60
2018-05-25T13:51:38.096Z,19.50
2018-05-25T13:54:05.717Z,19.50
2018-05-25T13:56:33.376Z,19.40
2018-05-25T13:59:01.009Z,19.50
2018-05-25T14:01:28.602Z,19.60
2018-05-25T14:03:56.996Z,19.50
2018-05-25T14:06:25.428Z,19.50
2018-05-25T14:08:53.077Z,19.40
2018-05-25T14:11:20.667Z,19.40
2018-05-25T14:13:49.137Z,19.30
2018-05-25T14:18:50.769Z,19.30
2018-05-25T14:21:18.406Z,19.20
2018-05-25T14:23:46.769Z,18.90
2018-05-25T14:26:14.405Z,18.90
2018-05-25T14:28:42.077Z,18.80
2018-05-25T14:31:09.700Z,18.70
2018-05-25T14:33:37.348Z,18.70
2018-05-25T14:36:04.936Z,18.60
2018-05-25T14:38:33.316Z,18.60
2018-05-25T14:41:00.998Z,18.60
2018-05-25T14:43:28.644Z,18.40
2018-05-25T14:45:56.233Z,18.50
2018-05-25T14:48:23.865Z,18.40
2018-05-25T14:50:51.448Z,18.50
2018-05-25T14:53:19.108Z,18.60
2018-05-25T14:55:46.705Z,18.60
2018-05-25T14:58:15.096Z,18.70
2018-05-25T15:00:42.705Z,18.70
2018-05-25T15:03:10.339Z,18.70
2018-05-25T15:05:37.969Z,18.70
2018-05-25T15:08:05.560Z,18.80
2018-05-25T15:10:33.193Z,18.90
2018-05-25T15:13:00.789Z,19.00
2018-05-25T15:15:28.416Z,19.00
2018-05-25T15:17:56.049Z,19.10
2018-05-25T15:20:23.677Z,18.90
2018-05-25T15:22:51.373Z,18.80
2018-05-25T15:25:19.781Z,18.80
2018-05-25T15:27:47.410Z,18.80
2018-05-25T15:30:15.040Z,18.90
2018-05-25T15:32:42.835Z,19.00
2018-05-25T15:35:10.292Z,19.10
2018-05-25T15:37:37.920Z,19.20
2018-05-25T15:40:05.572Z,19.30
2018-05-25T15:42:33.221Z,19.40
2018-05-25T15:45:00.832Z,19.50
2018-05-25T15:47:28.576Z,19.60
2018-05-25T15:49:56.231Z,19.70
2018-05-25T15:52:23.905Z,19.80
2018-05-25T15:54:51.540Z,19.80
2018-05-25T15:57:19.165Z,19.80
2018-05-25T15:59:47.618Z,19.80
2018-05-25T16:02:16.165Z,19.80
2018-05-25T16:04:43.864Z,19.80
2018-05-25T16:07:11.460Z,19.80
2018-05-25T16:09:39.109Z,19.80
2018-05-25T16:12:07.531Z,19.90
2018-05-25T16:14:35.137Z,19.90
2018-05-25T16:17:03.501Z,20.00
2018-05-25T16:19:31.140Z,20.00
2018-05-25T16:21:58.794Z,20.00
2018-05-25T16:24:26.442Z,20.10
2018-05-25T16:26:54.128Z,20.20
2018-05-25T16:29:22.498Z,20.40
2018-05-25T16:31:50.220Z,20.40
2018-05-25T16:34:18.628Z,20.40
2018-05-25T16:36:46.266Z,20.40
2018-05-25T16:39:13.879Z,20.30
2018-05-25T16:41:41.471Z,20.20
2018-05-25T16:44:09.873Z,19.90
2018-05-25T16:46:37.500Z,19.90
2018-05-25T16:49:05.138Z,19.80
2018-05-25T16:51:32.724Z,19.60
2018-05-25T16:54:01.131Z,19.60
2018-05-25T16:56:28.784Z,19.60
2018-05-25T16:58:57.930Z,19.40
2018-05-25T17:01:26.300Z,19.40
2018-05-25T17:03:53.953Z,19.40
2018-05-25T17:06:22.429Z,19.20
2018-05-25T17:08:50.065Z,19.20
2018-05-25T17:11:18.424Z,19.20
2018-05-25T17:13:46.019Z,19.20
2018-05-25T17:16:13.711Z,19.20
2018-05-25T17:18:41.405Z,19.30
2018-05-25T17:21:09.120Z,19.20
2018-05-25T17:23:36.746Z,19.20
2018-05-25T17:26:05.167Z,19.20
2018-05-25T17:28:32.803Z,19.20
2018-05-25T17:31:00.437Z,19.20
2018-05-25T17:33:29.560Z,19.30
2018-05-25T17:35:57.190Z,19.30
2018-05-25T17:38:25.620Z,19.30
2018-05-25T17:40:53.255Z,19.30
2018-05-25T17:43:20.842Z,19.30
2018-05-25T17:45:48.472Z,19.30
2018-05-25T17:48:16.887Z,19.20
2018-05-25T17:50:44.473Z,19.20
2018-05-25T17:53:12.146Z,19.20
2018-05-25T17:55:39.796Z,19.20
2018-05-25T17:58:07.421Z,19.20
2018-05-25T18:00:35.048Z,19.20
2018-05-25T18:03:03.475Z,19.10
2018-05-25T18:05:31.056Z,19.10
2018-05-25T18:08:00.972Z,19.10
2018-05-25T18:10:28.561Z,19.10
2018-05-25T18:12:56.957Z,19.10
2018-05-25T18:15:24.546Z,19.00
2018-05-25T18:17:52.176Z,19.00
2018-05-25T18:20:19.806Z,19.00
2018-05-25T18:22:47.496Z,19.00
2018-05-25T18:25:15.920Z,18.80
2018-05-25T18:27:44.290Z,18.80
2018-05-25T18:30:11.920Z,18.80
2018-05-25T18:32:39.560Z,18.70
2018-05-25T18:35:07.967Z,18.70
2018-05-25T18:37:35.618Z,18.70
2018-05-25T18:40:04.037Z,18.60
2018-05-25T18:42:31.979Z,18.60
2018-05-25T18:45:00.178Z,18.60
2018-05-25T18:47:28.090Z,18.50
2018-05-25T18:49:56.856Z,18.50
2018-05-25T18:52:25.722Z,18.40
2018-05-25T18:54:53.490Z,18.40
2018-05-25T18:57:21.419Z,18.40
2018-05-25T18:59:49.096Z,18.40
2018-05-25T19:02:16.788Z,18.30
2018-05-25T19:04:45.499Z,18.30
2018-05-25T19:07:13.535Z,18.10
2018-05-25T19:09:44.444Z,17.90
2018-05-25T19:12:13.310Z,17.90
2018-05-25T19:14:41.945Z,17.80
2018-05-25T19:17:09.743Z,17.80
2018-05-25T19:19:37.801Z,17.70
2018-05-25T19:22:05.866Z,17.70
2018-05-25T19:24:33.686Z,17.70
2018-05-25T19:27:01.742Z,17.70
2018-05-25T19:29:30.181Z,17.80
2018-05-25T19:31:57.869Z,17.80
2018-05-25T19:34:25.611Z,17.80
2018-05-25T19:36:53.455Z,17.80
2018-05-25T19:39:21.076Z,17.80
2018-05-25T19:41:49.560Z,17.70
2018-05-25T19:44:18.000Z,17.70
2018-05-25T19:46:46.034Z,17.70
2018-05-25T19:49:13.714Z,17.70
2018-05-25T19:51:45.755Z,17.70
2018-05-25T19:54:13.524Z,17.70
2018-05-25T19:56:41.156Z,17.70
2018-05-25T19:59:09.655Z,17.60
2018-05-25T20:01:38.150Z,17.70
2018-05-25T20:04:05.848Z,17.70
2018-05-25T20:06:33.444Z,17.80
2018-05-25T20:09:01.985Z,17.90
2018-05-25T20:11:29.643Z,17.80
2018-05-25T20:13:57.813Z,17.90
2018-05-25T20:16:26.202Z,17.90
2018-05-25T20:18:55.096Z,17.90
2018-05-25T20:21:22.691Z,17.80
2018-05-25T20:23:51.152Z,17.90
2018-05-25T20:26:19.605Z,17.80
2018-05-25T20:28:47.208Z,17.90
2018-05-25T20:31:15.076Z,17.90
2018-05-25T20:33:43.489Z,17.90
2018-05-25T20:36:11.130Z,17.90
2018-05-25T20:38:39.525Z,17.80
2018-05-25T20:41:07.125Z,17.80
2018-05-25T20:43:34.753Z,17.80
2018-05-25T20:46:02.416Z,17.90
2018-05-25T20:48:30.090Z,17.80
2018-05-25T20:50:57.761Z,17.70
2018-05-25T20:53:25.369Z,17.80
2018-05-25T20:55:53.818Z,17.80
2018-05-25T20:58:21.598Z,17.70
2018-05-25T21:00:49.263Z,17.80
2018-05-25T21:03:16.958Z,17.80
2018-05-25T21:05:44.614Z,17.80
2018-05-25T21:08:12.233Z,17.70
2018-05-25T21:10:39.831Z,17.60
2018-05-25T21:13:08.704Z,17.50
2018-05-25T21:15:37.203Z,17.50
2018-05-25T21:18:05.643Z,17.60
2018-05-25T21:20:33.256Z,17.50
2018-05-25T21:23:00.939Z,17.50
2018-05-25T21:25:28.548Z,17.50
2018-05-25T21:27:56.191Z,17.40
2018-05-25T21:30:23.932Z,17.40
2018-05-25T21:32:51.528Z,17.30
2018-05-25T21:35:19.156Z,17.20
2018-05-25T21:37:46.749Z,17.30
2018-05-25T21:40:14.377Z,17.20
2018-05-25T21:42:41.983Z,17.20
2018-05-25T21:45:10.381Z,17.00
2018-05-25T21:47:38.000Z,17.00
2018-05-25T21:50:06.104Z,16.80
2018-05-25T21:52:33.714Z,16.70
2018-05-25T21:55:01.365Z,16.70
2018-05-25T21:57:28.989Z,16.80
2018-05-25T21:59:57.346Z,16.90
2018-05-25T22:02:24.969Z,16.80
2018-05-25T22:04:52.602Z,16.90
2018-05-25T22:07:20.188Z,17.00
2018-05-25T22:09:47.821Z,17.00
2018-05-25T22:12:15.421Z,17.00
2018-05-25T22:14:43.099Z,17.10
2018-05-25T22:17:10.765Z,17.00
2018-05-25T22:19:38.398Z,17.00
2018-05-25T22:22:05.984Z,17.00
2018-05-25T22:24:33.616Z,16.80
2018-05-25T22:27:01.265Z,16.60
2018-05-25T22:29:28.904Z,16.50
2018-05-25T22:31:57.256Z,16.70
2018-05-25T22:34:24.848Z,16.70
2018-05-25T22:36:52.539Z,16.80
2018-05-25T22:39:20.165Z,16.80
2018-05-25T22:41:50.405Z,16.90
2018-05-25T22:44:29.861Z,16.90
2018-05-25T22:47:09.487Z,16.90
2018-05-25T22:49:48.961Z,16.90
2018-05-25T22:52:30.978Z,16.90
2018-05-25T22:54:58.560Z,16.90
2018-05-25T22:57:26.959Z,16.90
2018-05-25T22:59:54.557Z,16.80
2018-05-25T23:02:22.960Z,16.80
2018-05-25T23:04:51.356Z,16.80
2018-05-25T23:07:19.709Z,16.60
2018-05-25T23:09:47.340Z,16.60
2018-05-25T23:12:14.968Z,16.40
2018-05-25T23:14:42.556Z,16.40
2018-05-25T23:17:10.180Z,16.40
2018-05-25T23:21:44.715Z,16.40
2018-05-25T23:24:13.132Z,16.40
2018-05-25T23:26:40.721Z,16.40
2018-05-25T23:29:08.358Z,16.20
2018-05-25T23:31:35.940Z,16.00
2018-05-25T23:34:03.568Z,16.00
2018-05-25T23:36:31.196Z,16.10
2018-05-25T23:38:59.596Z,16.10
2018-05-25T23:41:27.255Z,16.10
2018-05-25T23:43:55.016Z,16.20
2018-05-25T23:46:22.601Z,16.30
2018-05-25T23:48:50.232Z,16.30
2018-05-25T23:51:17.861Z,16.20
2018-05-25T23:53:45.448Z,16.10
2018-05-25T23:56:13.849Z,15.90
2018-05-25T23:58:41.444Z,15.90
